createdAt,value
2018-11-10T00:00:27.487Z,21.6
2018-11-10T00:01:17.889Z,21.6
2018-11-10T00:02:08.389Z,21.6
2018-11-10T00:02:59.036Z,21.6
2018-11-10T00:03:48.329Z,21.6
2018-11-10T00:04:38.314Z,21.6
2018-11-10T00:05:28.274Z,21.6
2018-11-10T00:06:18.753Z,21.6
2018-11-10T00:07:07.979Z,21.6
2018-11-10T00:25:20.258Z,21.6
2018-11-10T00:26:10.560Z,21.6
2018-11-10T00:26:59.724Z,21.6
2018-11-10T00:27:50.432Z,21.7
2018-11-10T00:28:40.255Z,21.7
2018-11-10T00:29:30.457Z,21.7
2018-11-10T00:30:20.908Z,21.7
2018-11-10T00:31:11.190Z,21.7
2018-11-10T00:32:00.247Z,21.7
2018-11-10T00:32:50.712Z,21.7
2018-11-10T00:33:41.112Z,21.7
2018-11-10T00:34:31.469Z,21.7
2018-11-10T00:35:21.107Z,21.7
2018-11-10T00:36:11.634Z,21.6
2018-11-10T00:37:01.307Z,21.6
2018-11-10T00:37:51.045Z,21.6
2018-11-10T00:38:41.407Z,21.6
2018-11-10T00:39:31.056Z,21.6
2018-11-10T00:40:21.259Z,21.6
2018-11-10T00:41:10.432Z,21.4
2018-11-10T00:42:01.417Z,21.4
2018-11-10T00:42:51.329Z,21.3
2018-11-10T00:43:41.742Z,21.3
2018-11-10T00:44:31.324Z,21.4
2018-11-10T00:45:20.704Z,21.4
2018-11-10T00:46:11.094Z,21.4
2018-11-10T00:47:01.362Z,21.5
2018-11-10T00:47:50.653Z,21.5
2018-11-10T00:48:42.446Z,21.5
2018-11-10T00:49:32.532Z,21.6
2018-11-10T00:50:21.976Z,21.6
2018-11-10T00:51:12.499Z,21.6
2018-11-10T00:52:01.681Z,21.6
2018-11-10T00:52:53.019Z,21.6
2018-11-10T00:53:41.913Z,21.6
2018-11-10T00:54:31.493Z,21.6
2018-11-10T00:55:22.701Z,21.6
2018-11-10T00:56:12.441Z,21.6
2018-11-10T00:57:01.959Z,21.7
2018-11-10T00:57:52.025Z,21.7
2018-11-10T00:58:43.498Z,21.7
2018-11-10T00:59:32.195Z,21.7
2018-11-10T01:00:22.503Z,21.7
2018-11-10T01:01:12.655Z,21.8
2018-11-10T01:02:03.088Z,21.7
2018-11-10T01:02:52.272Z,21.7
2018-11-10T01:03:43.285Z,21.8
2018-11-10T01:04:32.977Z,21.8
2018-11-10T01:05:22.890Z,21.8
2018-11-10T01:06:13.195Z,21.8
2018-11-10T01:07:02.785Z,21.8
2018-11-10T01:07:52.264Z,21.8
2018-11-10T01:08:43.090Z,21.8
2018-11-10T01:09:33.702Z,21.8
2018-11-10T01:10:23.510Z,21.8
2018-11-10T01:11:13.600Z,21.9
2018-11-10T01:12:03.075Z,21.9
2018-11-10T01:12:54.222Z,21.8
2018-11-10T01:13:42.175Z,21.9
2018-11-10T01:14:33.805Z,21.8
2018-11-10T01:15:24.104Z,21.9
2018-11-10T01:16:13.709Z,21.8
2018-11-10T01:17:03.177Z,21.8
2018-11-10T01:17:53.779Z,21.8
2018-11-10T01:18:44.339Z,21.8
2018-11-10T01:19:34.434Z,21.8
2018-11-10T01:20:23.912Z,21.8
2018-11-10T01:21:13.547Z,21.8
2018-11-10T01:22:03.369Z,21.8
2018-11-10T01:22:54.381Z,21.8
2018-11-10T01:23:44.202Z,21.8
2018-11-10T01:24:35.365Z,21.8
2018-11-10T01:25:25.459Z,21.8
2018-11-10T01:26:14.077Z,21.8
2018-11-10T01:27:05.241Z,21.8
2018-11-10T01:27:55.416Z,21.8
2018-11-10T01:28:45.359Z,21.8
2018-11-10T01:29:34.630Z,21.8
2018-11-10T01:30:25.379Z,21.8
2018-11-10T01:31:14.062Z,21.8
2018-11-10T01:32:05.319Z,21.8
2018-11-10T01:32:56.064Z,21.8
2018-11-10T01:33:44.484Z,21.8
2018-11-10T01:34:35.153Z,21.8
2018-11-10T01:35:25.101Z,21.8
2018-11-10T01:36:15.798Z,21.8
2018-11-10T01:37:04.915Z,21.7
2018-11-10T01:37:55.608Z,21.7
2018-11-10T01:38:44.938Z,21.8
2018-11-10T01:39:35.928Z,21.7
2018-11-10T01:40:25.302Z,21.7
2018-11-10T01:41:16.208Z,21.8
2018-11-10T01:42:05.938Z,21.8
2018-11-10T01:42:55.328Z,21.8
2018-11-10T01:43:44.983Z,21.8
2018-11-10T01:44:36.163Z,21.8
2018-11-10T01:45:27.135Z,21.8
2018-11-10T01:46:16.848Z,21.8
2018-11-10T01:47:05.565Z,21.8
2018-11-10T01:47:55.442Z,21.8
2018-11-10T01:48:46.212Z,21.8
2018-11-10T01:49:36.623Z,21.8
2018-11-10T01:50:26.341Z,21.8
2018-11-10T01:51:16.265Z,21.8
2018-11-10T01:52:06.173Z,21.8
2018-11-10T01:52:56.839Z,21.8
2018-11-10T01:53:47.049Z,21.8
2018-11-10T01:54:36.816Z,21.9
2018-11-10T01:55:26.773Z,21.9
2018-11-10T01:56:17.059Z,21.8
2018-11-10T01:57:06.655Z,21.8
2018-11-10T01:57:58.044Z,21.8
2018-11-10T01:58:46.698Z,21.8
2018-11-10T01:59:36.863Z,21.8
2018-11-10T02:00:26.432Z,21.8
2018-11-10T02:01:17.780Z,21.8
2018-11-10T02:02:07.759Z,21.8
2018-11-10T02:02:57.355Z,21.8
2018-11-10T02:03:47.566Z,21.8
2018-11-10T02:04:37.385Z,21.8
2018-11-10T02:05:27.354Z,21.8
2018-11-10T02:06:16.734Z,21.8
2018-11-10T02:07:07.104Z,21.8
2018-11-10T02:07:57.391Z,21.8
2018-11-10T02:08:46.641Z,21.8
2018-11-10T02:09:38.383Z,21.8
2018-11-10T02:10:26.876Z,21.8
2018-11-10T02:11:16.418Z,21.8
2018-11-10T02:12:08.531Z,21.8
2018-11-10T02:12:57.509Z,21.8
2018-11-10T02:13:47.811Z,21.7
2018-11-10T02:14:38.184Z,21.8
2018-11-10T02:15:28.483Z,21.7
2018-11-10T02:16:17.861Z,21.7
2018-11-10T02:17:07.238Z,21.7
2018-11-10T02:17:58.753Z,21.7
2018-11-10T02:18:47.869Z,21.7
2018-11-10T02:19:37.376Z,21.7
2018-11-10T02:20:28.356Z,21.7
2018-11-10T02:21:17.857Z,21.7
2018-11-10T02:22:08.667Z,21.7
2018-11-10T02:22:57.928Z,21.7
2018-11-10T02:23:48.913Z,21.7
2018-11-10T02:24:38.958Z,21.7
2018-11-10T02:25:28.511Z,21.8
2018-11-10T02:26:18.003Z,21.8
2018-11-10T02:27:08.035Z,21.8
2018-11-10T02:27:59.104Z,21.8
2018-11-10T02:28:48.530Z,21.8
2018-11-10T02:29:39.206Z,21.8
2018-11-10T02:30:28.792Z,21.8
2018-11-10T02:31:19.595Z,21.8
2018-11-10T02:32:09.026Z,21.8
2018-11-10T02:32:59.712Z,21.8
2018-11-10T02:33:50.602Z,21.8
2018-11-10T02:34:39.890Z,21.8
2018-11-10T02:35:29.152Z,21.8
2018-11-10T02:36:19.140Z,21.8
2018-11-10T02:37:09.388Z,21.8
2018-11-10T02:37:59.852Z,21.8
2018-11-10T02:38:50.668Z,21.7
2018-11-10T02:39:39.397Z,21.8
2018-11-10T02:40:29.427Z,21.8
2018-11-10T02:41:20.333Z,21.8
2018-11-10T02:42:10.120Z,21.8
2018-11-10T02:43:00.545Z,21.8
2018-11-10T02:43:49.807Z,21.7
2018-11-10T02:44:39.982Z,21.8
2018-11-10T02:45:30.685Z,21.8
2018-11-10T02:46:19.532Z,21.8
2018-11-10T02:47:10.312Z,21.8
2018-11-10T02:47:59.684Z,21.8
2018-11-10T02:48:51.107Z,21.8
2018-11-10T02:49:41.147Z,21.8
2018-11-10T02:50:31.002Z,21.8
2018-11-10T02:51:19.942Z,21.8
2018-11-10T02:52:11.329Z,21.9
2018-11-10T02:53:01.540Z,21.9
2018-11-10T02:53:50.704Z,21.9
2018-11-10T02:54:42.144Z,21.9
2018-11-10T02:55:30.771Z,21.9
2018-11-10T02:56:21.454Z,21.9
2018-11-10T02:57:10.569Z,21.8
2018-11-10T02:58:00.903Z,21.8
2018-11-10T02:58:51.549Z,21.8
2018-11-10T02:59:42.136Z,21.8
2018-11-10T03:00:31.673Z,21.8
2018-11-10T03:01:20.881Z,21.8
2018-11-10T03:02:11.554Z,21.8
2018-11-10T03:03:02.401Z,21.8
2018-11-10T03:03:52.356Z,21.8
2018-11-10T03:04:41.498Z,21.8
2018-11-10T03:05:32.059Z,21.8
2018-11-10T03:06:22.420Z,21.8
2018-11-10T03:07:12.176Z,21.8
2018-11-10T03:08:02.179Z,21.8
2018-11-10T03:08:52.818Z,21.8
2018-11-10T03:09:42.346Z,21.8
2018-11-10T03:10:31.922Z,21.8
2018-11-10T03:11:21.931Z,21.8
2018-11-10T03:12:12.105Z,21.8
2018-11-10T03:13:01.653Z,21.8
2018-11-10T03:13:52.441Z,21.8
2018-11-10T03:14:43.235Z,21.8
2018-11-10T03:15:33.185Z,21.7
2018-11-10T03:16:22.284Z,21.7
2018-11-10T03:17:12.268Z,21.7
2018-11-10T03:18:02.625Z,21.7
2018-11-10T03:18:52.363Z,21.7
2018-11-10T03:19:42.540Z,21.8
2018-11-10T03:20:33.415Z,21.7
2018-11-10T03:21:23.132Z,21.7
2018-11-10T03:22:11.957Z,21.7
2018-11-10T03:23:03.718Z,21.8
2018-11-10T03:23:53.292Z,21.8
2018-11-10T03:24:43.640Z,21.8
2018-11-10T03:25:33.760Z,21.8
2018-11-10T03:26:23.872Z,21.8
2018-11-10T03:27:13.865Z,21.8
2018-11-10T03:28:03.129Z,21.8
2018-11-10T03:28:53.261Z,21.8
2018-11-10T03:29:43.747Z,21.8
2018-11-10T03:30:33.925Z,21.8
2018-11-10T03:31:23.968Z,21.8
2018-11-10T03:32:14.342Z,21.8
2018-11-10T03:33:03.003Z,21.8
2018-11-10T03:33:53.824Z,21.8
2018-11-10T03:34:43.964Z,21.8
2018-11-10T03:35:33.372Z,21.8
2018-11-10T03:36:25.014Z,21.8
2018-11-10T03:37:13.895Z,21.9
2018-11-10T03:38:04.411Z,21.9
2018-11-10T03:38:54.747Z,21.9
2018-11-10T03:39:43.599Z,21.9
2018-11-10T03:40:33.679Z,21.8
2018-11-10T03:41:23.524Z,21.8
2018-11-10T03:42:14.952Z,21.8
2018-11-10T03:43:03.939Z,21.8
2018-11-10T03:43:54.374Z,21.8
2018-11-10T03:44:45.421Z,21.8
2018-11-10T03:45:33.871Z,21.8
2018-11-10T03:46:24.793Z,21.8
2018-11-10T03:47:14.691Z,21.8
2018-11-10T03:48:04.469Z,21.8
2018-11-10T03:48:54.694Z,21.8
2018-11-10T03:49:45.101Z,21.8
2018-11-10T03:50:34.503Z,21.8
2018-11-10T03:51:25.088Z,21.8
2018-11-10T03:52:15.661Z,21.8
2018-11-10T03:53:05.248Z,21.8
2018-11-10T03:53:55.553Z,21.8
2018-11-10T03:54:45.271Z,21.8
2018-11-10T03:55:35.751Z,21.8
2018-11-10T03:56:25.670Z,21.8
2018-11-10T03:57:16.290Z,21.8
2018-11-10T03:58:05.815Z,21.8
2018-11-10T03:58:55.969Z,21.8
2018-11-10T03:59:44.575Z,21.8
2018-11-10T04:00:35.736Z,21.7
2018-11-10T04:01:25.511Z,21.8
2018-11-10T04:02:16.665Z,21.8
2018-11-10T04:03:05.916Z,21.7
2018-11-10T04:03:55.981Z,21.7
2018-11-10T04:04:45.358Z,21.7
2018-11-10T04:05:35.832Z,21.7
2018-11-10T04:06:26.440Z,21.8
2018-11-10T04:07:15.967Z,21.8
2018-11-10T04:08:07.067Z,21.8
2018-11-10T04:08:56.864Z,21.8
2018-11-10T04:09:46.838Z,21.8
2018-11-10T04:10:37.221Z,21.8
2018-11-10T04:11:27.362Z,21.8
2018-11-10T04:12:17.117Z,21.8
2018-11-10T04:13:07.234Z,21.8
2018-11-10T04:13:56.611Z,21.8
2018-11-10T04:14:46.988Z,21.8
2018-11-10T04:15:37.883Z,21.8
2018-11-10T04:16:27.729Z,21.8
2018-11-10T04:17:17.219Z,21.8
2018-11-10T04:18:06.377Z,21.8
2018-11-10T04:18:57.547Z,21.8
2018-11-10T04:19:47.918Z,21.9
2018-11-10T04:20:37.651Z,21.8
2018-11-10T04:21:27.515Z,21.9
2018-11-10T04:22:17.137Z,21.9
2018-11-10T04:23:06.551Z,21.9
2018-11-10T04:23:57.442Z,21.9
2018-11-10T04:24:47.781Z,21.9
2018-11-10T04:25:39.340Z,21.9
2018-11-10T04:26:27.230Z,21.9
2018-11-10T04:27:17.841Z,21.9
2018-11-10T04:28:08.269Z,21.9
2018-11-10T04:28:58.563Z,21.9
2018-11-10T04:29:48.339Z,21.9
2018-11-10T04:30:37.853Z,21.8
2018-11-10T04:31:27.463Z,21.8
2018-11-10T04:32:17.925Z,21.8
2018-11-10T04:33:07.988Z,21.8
2018-11-10T04:33:57.784Z,21.8
2018-11-10T04:34:48.400Z,21.8
2018-11-10T04:35:38.798Z,21.8
2018-11-10T04:36:27.968Z,21.8
2018-11-10T04:54:35.092Z,21.3
2018-11-10T04:55:24.875Z,21.4
2018-11-10T04:56:15.349Z,21.4
2018-11-10T04:57:04.627Z,21.4
2018-11-10T04:57:55.561Z,21.4
2018-11-10T04:58:45.556Z,21.4
2018-11-10T04:59:35.868Z,21.4
2018-11-10T05:00:25.780Z,21.4
2018-11-10T05:01:15.180Z,21.4
2018-11-10T05:02:05.835Z,21.4
2018-11-10T05:02:56.169Z,21.4
2018-11-10T05:03:45.497Z,21.4
2018-11-10T05:04:35.169Z,21.4
2018-11-10T05:05:25.745Z,21.4
2018-11-10T05:06:16.169Z,21.4
2018-11-10T05:07:05.632Z,21.4
2018-11-10T05:07:55.997Z,21.4
2018-11-10T05:08:46.316Z,21.4
2018-11-10T05:09:36.089Z,21.4
2018-11-10T05:10:26.648Z,21.4
2018-11-10T05:11:15.634Z,21.4
2018-11-10T05:12:06.558Z,21.4
2018-11-10T05:12:56.931Z,21.4
2018-11-10T05:13:46.501Z,21.4
2018-11-10T05:14:36.383Z,21.4
2018-11-10T05:15:27.651Z,21.4
2018-11-10T05:16:16.760Z,21.3
2018-11-10T05:17:05.863Z,21.4
2018-11-10T05:17:57.056Z,21.4
2018-11-10T05:18:46.500Z,21.4
2018-11-10T05:19:36.981Z,21.3
2018-11-10T05:20:26.744Z,21.3
2018-11-10T05:21:17.003Z,21.3
2018-11-10T05:22:07.071Z,21.3
2018-11-10T05:22:57.010Z,21.3
2018-11-10T05:23:47.665Z,21.3
2018-11-10T05:24:36.878Z,21.3
2018-11-10T05:25:27.559Z,21.3
2018-11-10T05:26:17.370Z,21.3
2018-11-10T05:27:06.963Z,21.3
2018-11-10T05:27:56.928Z,21.3
2018-11-10T05:28:48.595Z,21.3
2018-11-10T05:29:37.132Z,21.2
2018-11-10T05:31:20.548Z,21
2018-11-10T05:32:07.614Z,21
2018-11-10T05:32:57.477Z,20.9
2018-11-10T05:33:48.375Z,20.9
2018-11-10T05:34:37.298Z,20.9
2018-11-10T05:35:29.310Z,20.9
2018-11-10T05:36:18.665Z,20.9
2018-11-10T05:37:08.479Z,20.9
2018-11-10T05:37:58.927Z,20.8
2018-11-10T05:38:48.747Z,20.8
2018-11-10T05:39:38.632Z,20.8
2018-11-10T05:40:28.303Z,20.8
2018-11-10T05:41:17.847Z,20.9
2018-11-10T05:42:08.811Z,20.9
2018-11-10T05:42:58.567Z,20.9
2018-11-10T05:43:47.866Z,20.9
2018-11-10T05:44:39.307Z,20.9
2018-11-10T05:45:28.421Z,21
2018-11-10T05:46:18.541Z,21
2018-11-10T05:47:08.624Z,21.1
2018-11-10T05:47:58.869Z,21.1
2018-11-10T05:50:29.006Z,21.2
2018-11-10T05:51:19.383Z,21.3
2018-11-10T05:52:10.071Z,21.3
2018-11-10T05:52:59.474Z,21.3
2018-11-10T05:53:48.586Z,21.3
2018-11-10T05:54:38.898Z,21.3
2018-11-10T05:55:28.891Z,21.3
2018-11-10T05:56:19.857Z,21.3
2018-11-10T05:57:09.898Z,21.3
2018-11-10T05:57:59.148Z,21.3
2018-11-10T05:58:50.481Z,21.3
2018-11-10T05:59:40.263Z,21.3
2018-11-10T06:00:30.014Z,21.3
2018-11-10T06:01:20.006Z,21.3
2018-11-10T06:02:10.430Z,21.3
2018-11-10T06:03:00.564Z,21.3
2018-11-10T06:03:50.375Z,21.3
2018-11-10T06:04:39.878Z,21.3
2018-11-10T06:05:29.492Z,21.3
2018-11-10T06:06:21.006Z,21.3
2018-11-10T06:07:10.018Z,21.3
2018-11-10T06:07:59.573Z,21.3
2018-11-10T06:08:49.278Z,21.3
2018-11-10T06:09:41.847Z,21.3
2018-11-10T06:10:34.095Z,21.3
2018-11-10T06:11:20.395Z,21.3
2018-11-10T06:12:09.995Z,21.3
2018-11-10T06:13:00.897Z,21.3
2018-11-10T06:13:51.012Z,21.3
2018-11-10T06:14:40.255Z,21.3
2018-11-10T06:15:30.876Z,21.3
2018-11-10T06:16:20.903Z,21.4
2018-11-10T06:17:11.025Z,21.3
2018-11-10T06:18:00.285Z,21.4
2018-11-10T06:18:51.832Z,21.3
2018-11-10T06:19:40.834Z,21.3
2018-11-10T06:20:31.203Z,21.3
2018-11-10T06:21:21.517Z,21.3
2018-11-10T06:22:11.597Z,21.3
2018-11-10T06:23:00.939Z,21.3
2018-11-10T06:23:51.387Z,21.3
2018-11-10T06:24:42.385Z,21.3
2018-11-10T06:25:32.120Z,21.3
2018-11-10T06:26:21.814Z,21.3
2018-11-10T06:27:11.984Z,21.3
2018-11-10T06:28:01.792Z,21.3
2018-11-10T06:28:53.187Z,21.3
2018-11-10T06:29:41.529Z,21.3
2018-11-10T06:30:32.711Z,21.3
2018-11-10T06:31:21.784Z,21.3
2018-11-10T06:32:12.859Z,21.3
2018-11-10T06:33:01.529Z,21.3
2018-11-10T06:33:52.551Z,21.3
2018-11-10T06:34:42.384Z,21.3
2018-11-10T06:35:32.088Z,21.3
2018-11-10T06:36:23.041Z,21.3
2018-11-10T06:37:12.331Z,21.3
2018-11-10T06:38:02.526Z,21.3
2018-11-10T06:38:53.321Z,21.3
2018-11-10T06:39:42.859Z,21.3
2018-11-10T06:40:33.188Z,21.3
2018-11-10T06:41:22.440Z,21.3
2018-11-10T06:42:13.476Z,21.3
2018-11-10T06:43:03.473Z,21.3
2018-11-10T06:43:52.534Z,21.3
2018-11-10T06:44:42.626Z,21.3
2018-11-10T06:45:33.277Z,21.3
2018-11-10T06:46:22.714Z,21.3
2018-11-10T06:47:14.262Z,21.3
2018-11-10T06:48:03.491Z,21.3
2018-11-10T06:48:52.735Z,21.3
2018-11-10T06:49:43.430Z,21.3
2018-11-10T06:50:33.925Z,21.3
2018-11-10T06:51:23.682Z,21.3
2018-11-10T06:52:13.093Z,21.3
2018-11-10T06:53:05.463Z,21.3
2018-11-10T06:53:53.570Z,21.3
2018-11-10T06:54:44.154Z,21.3
2018-11-10T06:55:33.208Z,21.3
2018-11-10T06:56:23.186Z,21.3
2018-11-10T06:57:14.002Z,21.3
2018-11-10T06:58:03.555Z,21.3
2018-11-10T06:58:54.340Z,21.3
2018-11-10T06:59:44.797Z,21.3
2018-11-10T07:00:33.483Z,21.3
2018-11-10T07:01:23.075Z,21.3
2018-11-10T07:02:13.091Z,21.3
2018-11-10T07:03:03.655Z,21.3
2018-11-10T07:03:54.339Z,21.3
2018-11-10T07:04:43.919Z,21.3
2018-11-10T07:05:34.460Z,21.3
2018-11-10T07:06:24.145Z,21.2
2018-11-10T07:07:14.262Z,21.2
2018-11-10T07:08:05.955Z,21.2
2018-11-10T07:08:54.977Z,21.2
2018-11-10T07:09:45.526Z,21.2
2018-11-10T07:10:34.772Z,21.2
2018-11-10T07:11:24.925Z,21.2
2018-11-10T07:12:15.442Z,21.2
2018-11-10T07:13:05.631Z,21.2
2018-11-10T07:13:55.232Z,21.2
2018-11-10T07:14:44.299Z,21.2
2018-11-10T07:15:35.660Z,21.2
2018-11-10T07:16:25.012Z,21.2
2018-11-10T07:17:15.920Z,21.2
2018-11-10T07:18:05.812Z,21.2
2018-11-10T07:18:56.279Z,21.2
2018-11-10T07:19:45.261Z,21.2
2018-11-10T07:20:35.357Z,21.2
2018-11-10T07:21:25.524Z,21.2
2018-11-10T07:22:15.571Z,21.2
2018-11-10T07:23:05.458Z,21.2
2018-11-10T07:23:55.772Z,21.2
2018-11-10T07:24:46.089Z,21.2
2018-11-10T07:25:36.465Z,21.2
2018-11-10T07:26:26.733Z,21.2
2018-11-10T07:27:15.157Z,21.2
2018-11-10T07:28:06.079Z,21.2
2018-11-10T07:28:55.310Z,21.2
2018-11-10T07:29:45.890Z,21.2
2018-11-10T07:30:35.481Z,21.2
2018-11-10T07:33:05.891Z,21.2
2018-11-10T07:35:36.366Z,21.2
2018-11-10T08:00:38.083Z,21.1
2018-11-10T08:01:28.145Z,21.1
2018-11-10T08:03:08.945Z,21.1
2018-11-10T08:03:59.232Z,21.1
2018-11-10T08:04:47.974Z,21.1
2018-11-10T08:05:39.827Z,21.1
2018-11-10T08:06:27.914Z,21.1
2018-11-10T08:07:18.623Z,21.1
2018-11-10T08:08:09.534Z,21.1
2018-11-10T08:08:59.090Z,21.1
2018-11-10T08:09:49.649Z,21.1
2018-11-10T08:10:39.639Z,21.1
2018-11-10T08:11:28.462Z,21
2018-11-10T08:12:19.132Z,21.1
2018-11-10T08:13:09.339Z,21
2018-11-10T08:14:00.203Z,21
2018-11-10T08:14:49.824Z,21
2018-11-10T08:15:39.532Z,21.1
2018-11-10T08:16:28.829Z,21
2018-11-10T08:17:19.069Z,21
2018-11-10T08:18:09.236Z,21
2018-11-10T08:18:59.141Z,21
2018-11-10T08:19:50.629Z,21
2018-11-10T08:20:40.071Z,21
2018-11-10T08:21:29.941Z,21
2018-11-10T08:22:19.899Z,21
2018-11-10T08:23:09.691Z,21
2018-11-10T08:24:00.345Z,21
2018-11-10T08:24:51.020Z,21
2018-11-10T08:25:40.276Z,21
2018-11-10T08:26:30.029Z,20.9
2018-11-10T08:27:20.039Z,21
2018-11-10T08:28:10.166Z,20.9
2018-11-10T08:29:00.734Z,21
2018-11-10T08:29:50.807Z,20.9
2018-11-10T08:30:40.308Z,20.9
2018-11-10T08:31:30.433Z,20.9
2018-11-10T08:32:20.946Z,20.9
2018-11-10T08:33:08.528Z,20.9
2018-11-10T08:33:59.791Z,20.9
2018-11-10T08:34:49.817Z,20.9
2018-11-10T08:35:40.637Z,20.9
2018-11-10T08:36:29.491Z,20.9
2018-11-10T08:37:21.056Z,20.9
2018-11-10T08:38:09.484Z,20.9
2018-11-10T08:39:01.312Z,20.9
2018-11-10T08:39:51.213Z,20.9
2018-11-10T08:40:40.453Z,20.9
2018-11-10T08:41:30.967Z,20.9
2018-11-10T08:42:21.411Z,20.9
2018-11-10T08:43:11.767Z,20.9
2018-11-10T08:44:00.983Z,20.9
2018-11-10T08:44:51.088Z,20.9
2018-11-10T08:45:42.195Z,20.9
2018-11-10T08:46:31.678Z,20.9
2018-11-10T08:47:21.014Z,20.9
2018-11-10T08:48:11.056Z,20.9
2018-11-10T08:49:02.135Z,20.9
2018-11-10T08:49:51.332Z,20.9
2018-11-10T08:50:40.797Z,20.9
2018-11-10T08:51:30.852Z,20.9
2018-11-10T08:52:20.607Z,20.9
2018-11-10T09:09:01.073Z,20.8
2018-11-10T09:09:50.942Z,20.8
2018-11-10T09:10:41.402Z,20.8
2018-11-10T09:11:30.310Z,20.8
2018-11-10T09:12:21.895Z,20.8
2018-11-10T09:13:10.892Z,20.8
2018-11-10T09:14:01.436Z,20.8
2018-11-10T09:14:52.255Z,20.8
2018-11-10T09:15:41.496Z,20.8
2018-11-10T09:16:31.563Z,20.8
2018-11-10T09:17:21.438Z,20.8
2018-11-10T09:18:11.346Z,20.8
2018-11-10T09:19:00.583Z,20.8
2018-11-10T09:19:52.071Z,20.8
2018-11-10T09:20:41.437Z,20.8
2018-11-10T09:21:33.160Z,20.8
2018-11-10T09:22:22.080Z,20.8
2018-11-10T09:23:11.411Z,20.8
2018-11-10T09:24:01.529Z,20.8
2018-11-10T09:24:52.643Z,20.8
2018-11-10T09:25:43.017Z,20.7
2018-11-10T09:26:31.992Z,20.7
2018-11-10T09:27:22.324Z,20.7
2018-11-10T09:28:12.377Z,20.7
2018-11-10T09:29:02.491Z,20.7
2018-11-10T09:29:51.597Z,20.7
2018-11-10T09:30:42.469Z,20.7
2018-11-10T09:31:32.312Z,20.7
2018-11-10T09:32:22.192Z,20.7
2018-11-10T09:33:12.443Z,20.7
2018-11-10T09:34:02.994Z,20.7
2018-11-10T09:34:52.957Z,20.7
2018-11-10T09:35:42.347Z,20.7
2018-11-10T09:36:33.310Z,20.7
2018-11-10T09:37:23.611Z,20.7
2018-11-10T09:38:13.487Z,20.7
2018-11-10T09:39:02.135Z,20.6
2018-11-10T09:39:53.510Z,20.7
2018-11-10T09:40:43.179Z,20.6
2018-11-10T09:41:33.334Z,20.6
2018-11-10T09:42:25.723Z,20.6
2018-11-10T09:43:12.923Z,20.6
2018-11-10T09:44:03.182Z,20.6
2018-11-10T09:44:53.397Z,20.6
2018-11-10T09:45:42.654Z,20.6
2018-11-10T09:46:34.557Z,20.6
2018-11-10T09:47:22.719Z,20.6
2018-11-10T09:48:13.041Z,20.6
2018-11-10T09:49:03.856Z,20.6
2018-11-10T09:49:54.499Z,20.6
2018-11-10T09:50:43.832Z,20.6
2018-11-10T09:51:34.100Z,20.6
2018-11-10T09:52:24.434Z,20.6
2018-11-10T09:53:14.169Z,20.6
2018-11-10T09:54:03.563Z,20.6
2018-11-10T09:54:54.583Z,20.6
2018-11-10T09:55:43.853Z,20.6
2018-11-10T09:56:34.132Z,20.6
2018-11-10T09:57:24.472Z,20.6
2018-11-10T09:58:14.056Z,20.6
2018-11-10T09:59:04.085Z,20.6
2018-11-10T09:59:54.973Z,20.6
2018-11-10T10:00:44.193Z,20.6
2018-11-10T10:01:38.476Z,20.6
2018-11-10T10:02:29.002Z,20.6
2018-11-10T10:03:13.850Z,20.6
2018-11-10T10:04:04.954Z,20.6
2018-11-10T10:04:54.538Z,20.6
2018-11-10T10:05:44.309Z,20.6
2018-11-10T10:06:35.701Z,20.6
2018-11-10T10:07:25.245Z,20.6
2018-11-10T10:08:14.120Z,20.6
2018-11-10T10:09:05.855Z,20.6
2018-11-10T10:09:56.084Z,20.6
2018-11-10T10:10:45.252Z,20.6
2018-11-10T10:11:35.835Z,20.5
2018-11-10T10:12:24.725Z,20.5
2018-11-10T10:13:16.492Z,20.6
2018-11-10T10:14:05.011Z,20.5
2018-11-10T10:14:54.980Z,20.5
2018-11-10T10:15:45.301Z,20.5
2018-11-10T10:16:36.293Z,20.5
2018-11-10T10:17:25.250Z,20.5
2018-11-10T10:18:15.029Z,20.5
2018-11-10T10:19:05.810Z,20.5
2018-11-10T10:19:56.187Z,20.5
2018-11-10T10:20:45.780Z,20.5
2018-11-10T10:21:36.512Z,20.5
2018-11-10T10:22:26.847Z,20.5
2018-11-10T10:23:13.727Z,20.5
2018-11-10T10:24:05.540Z,20.5
2018-11-10T10:24:54.948Z,20.5
2018-11-10T10:25:46.584Z,20.5
2018-11-10T10:26:36.650Z,20.5
2018-11-10T10:27:25.582Z,20.4
2018-11-10T10:28:15.912Z,20.4
2018-11-10T10:29:08.873Z,20.5
2018-11-10T10:29:57.234Z,20.4
2018-11-10T10:30:45.752Z,20.4
2018-11-10T10:31:36.550Z,20.4
2018-11-10T10:32:25.755Z,20.5
2018-11-10T10:33:16.386Z,20.4
2018-11-10T10:34:07.825Z,20.4
2018-11-10T10:34:58.788Z,20.4
2018-11-10T10:35:47.957Z,20.4
2018-11-10T10:36:36.316Z,20.4
2018-11-10T10:37:26.893Z,20.4
2018-11-10T10:38:17.269Z,20.4
2018-11-10T10:39:06.951Z,20.4
2018-11-10T10:39:57.032Z,20.4
2018-11-10T10:40:47.834Z,20.4
2018-11-10T10:41:37.922Z,20.4
2018-11-10T10:42:27.976Z,20.4
2018-11-10T10:43:18.493Z,20.4
2018-11-10T10:44:07.142Z,20.4
2018-11-10T10:44:57.623Z,20.4
2018-11-10T10:45:48.153Z,20.4
2018-11-10T10:46:37.536Z,20.4
2018-11-10T10:47:28.124Z,20.4
2018-11-10T10:48:16.891Z,20.4
2018-11-10T10:49:08.076Z,20.4
2018-11-10T10:49:58.345Z,20.4
2018-11-10T10:50:48.406Z,20.4
2018-11-10T10:51:38.701Z,20.4
2018-11-10T10:52:28.709Z,20.4
2018-11-10T10:53:18.493Z,20.4
2018-11-10T10:54:08.800Z,20.4
2018-11-10T10:54:59.202Z,20.4
2018-11-10T10:55:48.975Z,20.4
2018-11-10T10:56:39.626Z,20.4
2018-11-10T10:57:28.683Z,20.4
2018-11-10T10:58:19.182Z,20.4
2018-11-10T10:59:08.250Z,20.4
2018-11-10T10:59:58.757Z,20.4
2018-11-10T11:00:47.212Z,20.4
2018-11-10T11:01:39.192Z,20.4
2018-11-10T11:02:28.425Z,20.3
2018-11-10T11:03:19.843Z,20.4
2018-11-10T11:04:09.409Z,20.3
2018-11-10T11:04:58.997Z,20.3
2018-11-10T11:05:49.397Z,20.4
2018-11-10T11:06:39.974Z,20.3
2018-11-10T11:07:29.114Z,20.3
2018-11-10T11:08:19.141Z,20.3
2018-11-10T11:09:09.715Z,20.3
2018-11-10T11:10:00.237Z,20.3
2018-11-10T11:10:49.259Z,20.3
2018-11-10T11:11:39.617Z,20.3
2018-11-10T11:12:29.309Z,20.3
2018-11-10T11:13:19.776Z,20.3
2018-11-10T11:14:09.045Z,20.3
2018-11-10T11:15:00.926Z,20.3
2018-11-10T11:15:52.202Z,20.3
2018-11-10T11:16:39.664Z,20.3
2018-11-10T11:17:29.688Z,20.3
2018-11-10T11:18:19.244Z,20.3
2018-11-10T11:19:08.619Z,20.3
2018-11-10T11:20:00.156Z,20.3
2018-11-10T11:20:49.721Z,20.3
2018-11-10T11:21:40.673Z,20.3
2018-11-10T11:22:29.366Z,20.3
2018-11-10T11:23:21.029Z,20.3
2018-11-10T11:24:09.636Z,20.3
2018-11-10T11:24:59.223Z,20.3
2018-11-10T11:25:49.103Z,20.3
2018-11-10T11:26:39.690Z,20.3
2018-11-10T11:27:30.581Z,20.3
2018-11-10T11:28:20.223Z,20.3
2018-11-10T11:29:10.885Z,20.3
2018-11-10T11:30:00.624Z,20.3
2018-11-10T11:30:50.290Z,20.3
2018-11-10T11:31:40.455Z,20.3
2018-11-10T11:32:30.173Z,20.3
2018-11-10T11:33:20.333Z,20.3
2018-11-10T11:34:10.385Z,20.3
2018-11-10T11:35:00.750Z,20.3
2018-11-10T11:35:50.108Z,20.3
2018-11-10T11:36:40.752Z,20.3
2018-11-10T11:37:31.503Z,20.3
2018-11-10T11:38:21.258Z,20.3
2018-11-10T11:39:10.318Z,20.3
2018-11-10T11:40:00.115Z,20.3
2018-11-10T11:40:51.280Z,20.3
2018-11-10T11:41:42.111Z,20.3
2018-11-10T11:42:32.095Z,20.3
2018-11-10T11:43:20.361Z,20.3
2018-11-10T11:44:10.445Z,20.3
2018-11-10T11:45:01.450Z,20.3
2018-11-10T11:45:51.110Z,20.3
2018-11-10T11:46:42.497Z,20.3
2018-11-10T11:47:32.801Z,20.2
2018-11-10T11:48:22.102Z,20.3
2018-11-10T11:49:11.985Z,20.2
2018-11-10T11:50:01.096Z,20.3
2018-11-10T11:50:51.932Z,20.3
2018-11-10T11:51:41.947Z,20.2
2018-11-10T11:52:32.862Z,20.2
2018-11-10T11:53:23.440Z,20.2
2018-11-10T11:54:11.275Z,20.3
2018-11-10T11:55:02.452Z,20.2
2018-11-10T11:55:52.044Z,20.2
2018-11-10T11:56:42.194Z,20.2
2018-11-10T11:57:33.814Z,20.2
2018-11-10T11:58:25.031Z,20.2
2018-11-10T11:59:13.625Z,20.2
2018-11-10T12:00:02.937Z,20.2
2018-11-10T12:00:53.294Z,20.2
2018-11-10T12:01:42.814Z,20.2
2018-11-10T12:02:33.504Z,20.2
2018-11-10T12:03:22.287Z,20.2
2018-11-10T12:04:13.649Z,20.2
2018-11-10T12:05:02.544Z,20.2
2018-11-10T12:05:53.109Z,20.2
2018-11-10T12:06:42.889Z,20.2
2018-11-10T12:07:33.679Z,20.2
2018-11-10T12:08:23.539Z,20.1
2018-11-10T12:09:13.784Z,20.1
2018-11-10T12:10:04.888Z,20.2
2018-11-10T12:10:54.121Z,20.1
2018-11-10T12:11:43.748Z,20.2
2018-11-10T12:12:34.796Z,20.1
2018-11-10T12:13:24.391Z,20.1
2018-11-10T12:14:13.592Z,20.1
2018-11-10T12:15:04.494Z,20.1
2018-11-10T12:15:54.592Z,20.1
2018-11-10T12:16:45.255Z,20.1
2018-11-10T12:17:34.091Z,20.1
2018-11-10T12:18:24.935Z,20.1
2018-11-10T12:19:14.504Z,20.1
2018-11-10T12:20:05.140Z,20.1
2018-11-10T12:20:55.557Z,20.1
2018-11-10T12:21:44.940Z,20.1
2018-11-10T12:22:35.086Z,20.1
2018-11-10T12:23:25.566Z,20.1
2018-11-10T12:24:14.764Z,20.1
2018-11-10T12:25:04.322Z,20.1
2018-11-10T12:25:54.786Z,20.1
2018-11-10T12:26:46.237Z,20.1
2018-11-10T12:27:34.979Z,20.1
2018-11-10T12:28:25.671Z,20.1